sensor_id;sensor_type;location;lat;lon;timestamp;pressure;altitude;pressure_sealevel;temperature;humidity
37200;BME280;23096;50.892;16.746;2022-12-24T00:00:30;98023.26;;;7.73;76.50
37200;BME280;23096;50.892;16.746;2022-12-24T00:02:57;98011.47;;;7.69;76.49
37200;BME280;23096;50.892;16.746;2022-12-24T00:05:23;98007.67;;;7.67;76.57
37200;BME280;23096;50.892;16.746;2022-12-24T00:07:49;98008.24;;;7.64;76.57
37200;BME280;23096;50.892;16.746;2022-12-24T00:10:15;98007.98;;;7.60;76.54
37200;BME280;23096;50.892;16.746;2022-12-24T00:12:41;98003.37;;;7.58;76.61
37200;BME280;23096;50.892;16.746;2022-12-24T00:15:08;97997.44;;;7.56;76.67
37200;BME280;23096;50.892;16.746;2022-12-24T00:17:34;98003.48;;;7.55;76.65
37200;BME280;23096;50.892;16.746;2022-12-24T00:20:00;98004.10;;;7.49;76.64
37200;BME280;23096;50.892;16.746;2022-12-24T00:22:26;98006.20;;;7.50;76.72
37200;BME280;23096;50.892;16.746;2022-12-24T00:24:52;98005.84;;;7.49;76.74
37200;BME280;23096;50.892;16.746;2022-12-24T00:27:18;97999.80;;;7.50;76.80
37200;BME280;23096;50.892;16.746;2022-12-24T00:29:44;97999.80;;;7.50;76.87
37200;BME280;23096;50.892;16.746;2022-12-24T00:32:10;98012.19;;;7.51;76.92
37200;BME280;23096;50.892;16.746;2022-12-24T00:34:36;98010.00;;;7.52;76.94
37200;BME280;23096;50.892;16.746;2022-12-24T00:37:02;98001.43;;;7.53;76.99
37200;BME280;23096;50.892;16.746;2022-12-24T00:39:28;98017.17;;;7.54;76.96
37200;BME280;23096;50.892;16.746;2022-12-24T00:41:55;98016.03;;;7.51;76.93
37200;BME280;23096;50.892;16.746;2022-12-24T00:44:21;98018.66;;;7.49;76.95
37200;BME280;23096;50.892;16.746;2022-12-24T00:46:47;98021.73;;;7.47;76.98
37200;BME280;23096;50.892;16.746;2022-12-24T00:49:13;98016.66;;;7.45;76.98
37200;BME280;23096;50.892;16.746;2022-12-24T00:51:39;98017.48;;;7.46;77.07
37200;BME280;23096;50.892;16.746;2022-12-24T00:54:05;98016.77;;;7.42;77.00
37200;BME280;23096;50.892;16.746;2022-12-24T00:56:32;98023.33;;;7.38;76.97
37200;BME280;23096;50.892;16.746;2022-12-24T00:58:58;98016.30;;;7.33;77.00
37200;BME280;23096;50.892;16.746;2022-12-24T01:01:24;98027.88;;;7.31;77.14
37200;BME280;23096;50.892;16.746;2022-12-24T01:03:50;98015.84;;;7.33;77.24
37200;BME280;23096;50.892;16.746;2022-12-24T01:06:17;98025.13;;;7.36;77.30
37200;BME280;23096;50.892;16.746;2022-12-24T01:08:45;98020.86;;;7.36;77.27
37200;BME280;23096;50.892;16.746;2022-12-24T01:11:12;98011.59;;;7.32;77.20
37200;BME280;23096;50.892;16.746;2022-12-24T01:13:38;98012.88;;;7.32;77.29
37200;BME280;23096;50.892;16.746;2022-12-24T01:16:12;98022.81;;;7.29;77.32
37200;BME280;23096;50.892;16.746;2022-12-24T01:18:40;98024.03;;;7.31;77.40
37200;BME280;23096;50.892;16.746;2022-12-24T01:21:06;98013.78;;;7.31;77.34
37200;BME280;23096;50.892;16.746;2022-12-24T01:23:32;98007.89;;;7.29;77.40
37200;BME280;23096;50.892;16.746;2022-12-24T01:26:01;98004.31;;;7.33;77.52
37200;BME280;23096;50.892;16.746;2022-12-24T01:28:28;98008.09;;;7.35;77.57
37200;BME280;23096;50.892;16.746;2022-12-24T01:30:54;98012.26;;;7.37;77.55
37200;BME280;23096;50.892;16.746;2022-12-24T01:33:20;98023.79;;;7.37;77.62
37200;BME280;23096;50.892;16.746;2022-12-24T01:35:46;98012.66;;;7.38;77.67
37200;BME280;23096;50.892;16.746;2022-12-24T01:38:12;98014.26;;;7.41;77.72
37200;BME280;23096;50.892;16.746;2022-12-24T01:40:39;98009.08;;;7.42;77.74
37200;BME280;23096;50.892;16.746;2022-12-24T01:43:25;98012.04;;;7.43;77.81
37200;BME280;23096;50.892;16.746;2022-12-24T01:45:57;98007.22;;;7.58;78.34
37200;BME280;23096;50.892;16.746;2022-12-24T01:48:36;98002.74;;;7.73;78.52
37200;BME280;23096;50.892;16.746;2022-12-24T01:53:51;98008.36;;;8.24;78.99
37200;BME280;23096;50.892;16.746;2022-12-24T01:56:20;98009.78;;;8.41;78.85
37200;BME280;23096;50.892;16.746;2022-12-24T01:58:47;98015.62;;;8.55;78.92
37200;BME280;23096;50.892;16.746;2022-12-24T02:01:16;98029.67;;;8.67;78.80
37200;BME280;23096;50.892;16.746;2022-12-24T02:03:42;98006.74;;;8.73;78.70
37200;BME280;23096;50.892;16.746;2022-12-24T02:06:08;97991.20;;;8.76;78.55
37200;BME280;23096;50.892;16.746;2022-12-24T02:08:37;98015.45;;;8.79;78.63
37200;BME280;23096;50.892;16.746;2022-12-24T02:11:09;98013.91;;;8.85;78.60
37200;BME280;23096;50.892;16.746;2022-12-24T02:13:36;98012.99;;;8.86;78.48
37200;BME280;23096;50.892;16.746;2022-12-24T02:16:07;98004.86;;;8.87;78.45
37200;BME280;23096;50.892;16.746;2022-12-24T02:21:27;98006.75;;;8.92;78.36
37200;BME280;23096;50.892;16.746;2022-12-24T02:32:02;98008.08;;;9.00;78.37
37200;BME280;23096;50.892;16.746;2022-12-24T02:37:15;98005.09;;;9.10;78.28
37200;BME280;23096;50.892;16.746;2022-12-24T02:39:43;97994.28;;;9.12;78.21
37200;BME280;23096;50.892;16.746;2022-12-24T02:42:18;98023.70;;;9.15;78.18
37200;BME280;23096;50.892;16.746;2022-12-24T02:54:38;98026.77;;;9.23;77.82
37200;BME280;23096;50.892;16.746;2022-12-24T02:57:12;98022.98;;;9.21;77.67
37200;BME280;23096;50.892;16.746;2022-12-24T03:00:00;98031.58;;;9.20;77.67
37200;BME280;23096;50.892;16.746;2022-12-24T03:08:30;98027.89;;;9.26;77.61
37200;BME280;23096;50.892;16.746;2022-12-24T03:13:30;98029.67;;;9.34;77.50
37200;BME280;23096;50.892;16.746;2022-12-24T03:15:56;98048.37;;;9.38;77.40
37200;BME280;23096;50.892;16.746;2022-12-24T03:18:26;98026.58;;;9.36;77.34
37200;BME280;23096;50.892;16.746;2022-12-24T03:20:55;98042.77;;;9.38;77.31
37200;BME280;23096;50.892;16.746;2022-12-24T03:23:23;98045.06;;;9.45;77.40
37200;BME280;23096;50.892;16.746;2022-12-24T03:25:49;98055.06;;;9.51;77.29
37200;BME280;23096;50.892;16.746;2022-12-24T03:28:15;98045.99;;;9.52;77.22
37200;BME280;23096;50.892;16.746;2022-12-24T03:30:43;98059.54;;;9.56;77.17
37200;BME280;23096;50.892;16.746;2022-12-24T03:33:10;98061.12;;;9.58;77.09
37200;BME280;23096;50.892;16.746;2022-12-24T03:35:37;98050.02;;;9.58;76.97
37200;BME280;23096;50.892;16.746;2022-12-24T03:38:03;98052.52;;;9.59;76.94
37200;BME280;23096;50.892;16.746;2022-12-24T03:40:29;98065.30;;;9.61;76.89
37200;BME280;23096;50.892;16.746;2022-12-24T03:42:55;98053.41;;;9.58;76.78
37200;BME280;23096;50.892;16.746;2022-12-24T03:45:21;98058.25;;;9.56;76.75
37200;BME280;23096;50.892;16.746;2022-12-24T03:47:47;98058.25;;;9.56;76.73
37200;BME280;23096;50.892;16.746;2022-12-24T03:50:13;98062.94;;;9.56;76.74
37200;BME280;23096;50.892;16.746;2022-12-24T03:52:39;98068.47;;;9.57;76.72
37200;BME280;23096;50.892;16.746;2022-12-24T03:55:05;98061.58;;;9.58;76.69
37200;BME280;23096;50.892;16.746;2022-12-24T03:57:32;98066.27;;;9.58;76.62
37200;BME280;23096;50.892;16.746;2022-12-24T03:59:57;98073.09;;;9.59;76.68
37200;BME280;23096;50.892;16.746;2022-12-24T04:02:23;98073.02;;;9.61;76.64
37200;BME280;23096;50.892;16.746;2022-12-24T04:04:50;98070.81;;;9.62;76.57
37200;BME280;23096;50.892;16.746;2022-12-24T04:07:16;98084.59;;;9.61;76.53
37200;BME280;23096;50.892;16.746;2022-12-24T04:09:41;98070.45;;;9.61;76.53
37200;BME280;23096;50.892;16.746;2022-12-24T04:12:08;98077.57;;;9.65;76.56
37200;BME280;23096;50.892;16.746;2022-12-24T04:14:34;98074.83;;;9.68;76.53
37200;BME280;23096;50.892;16.746;2022-12-24T04:16:59;98082.95;;;9.69;76.50
37200;BME280;23096;50.892;16.746;2022-12-24T04:19:26;98086.67;;;9.72;76.52
37200;BME280;23096;50.892;16.746;2022-12-24T04:21:52;98078.36;;;9.75;76.43
37200;BME280;23096;50.892;16.746;2022-12-24T04:24:17;98095.91;;;9.76;76.39
37200;BME280;23096;50.892;16.746;2022-12-24T04:26:43;98094.55;;;9.77;76.42
37200;BME280;23096;50.892;16.746;2022-12-24T04:29:09;98093.95;;;9.81;76.30
37200;BME280;23096;50.892;16.746;2022-12-24T04:31:35;98104.08;;;9.84;76.25
37200;BME280;23096;50.892;16.746;2022-12-24T04:34:01;98089.92;;;9.84;76.19
37200;BME280;23096;50.892;16.746;2022-12-24T04:36:29;98083.30;;;9.89;76.23
37200;BME280;23096;50.892;16.746;2022-12-24T04:38:55;98092.16;;;9.92;76.14
37200;BME280;23096;50.892;16.746;2022-12-24T04:41:22;98098.06;;;9.94;76.12
37200;BME280;23096;50.892;16.746;2022-12-24T04:43:49;98084.67;;;9.96;75.95
37200;BME280;23096;50.892;16.746;2022-12-24T04:46:21;98095.42;;;9.95;75.89
37200;BME280;23096;50.892;16.746;2022-12-24T04:48:46;98097.53;;;9.96;75.84
37200;BME280;23096;50.892;16.746;2022-12-24T04:51:13;98093.67;;;9.96;75.78
37200;BME280;23096;50.892;16.746;2022-12-24T04:53:40;98101.92;;;9.94;75.66
37200;BME280;23096;50.892;16.746;2022-12-24T04:56:10;98095.56;;;9.92;75.64
37200;BME280;23096;50.892;16.746;2022-12-24T04:58:37;98089.59;;;9.92;75.61
37200;BME280;23096;50.892;16.746;2022-12-24T05:01:04;98098.73;;;9.89;75.54
37200;BME280;23096;50.892;16.746;2022-12-24T05:03:31;98102.66;;;9.87;75.48
37200;BME280;23096;50.892;16.746;2022-12-24T05:06:01;98110.84;;;9.87;75.49
37200;BME280;23096;50.892;16.746;2022-12-24T05:08:29;98107.34;;;9.88;75.47
37200;BME280;23096;50.892;16.746;2022-12-24T05:10:55;98101.38;;;9.87;75.45
37200;BME280;23096;50.892;16.746;2022-12-24T05:13:22;98118.48;;;9.88;75.42
37200;BME280;23096;50.892;16.746;2022-12-24T05:15:48;98133.53;;;9.87;75.40
37200;BME280;23096;50.892;16.746;2022-12-24T05:18:14;98125.81;;;9.87;75.39
37200;BME280;23096;50.892;16.746;2022-12-24T05:20:41;98124.00;;;9.89;75.46
37200;BME280;23096;50.892;16.746;2022-12-24T05:23:08;98126.05;;;9.91;75.39
37200;BME280;23096;50.892;16.746;2022-12-24T05:25:54;98133.33;;;9.92;75.34
37200;BME280;23096;50.892;16.746;2022-12-24T05:28:39;98133.33;;;9.92;75.36
37200;BME280;23096;50.892;16.746;2022-12-24T05:31:05;98143.86;;;9.96;75.42
37200;BME280;23096;50.892;16.746;2022-12-24T05:33:31;98151.44;;;9.99;75.32
37200;BME280;23096;50.892;16.746;2022-12-24T05:35:56;98146.72;;;9.98;75.26
37200;BME280;23096;50.892;16.746;2022-12-24T05:38:22;98144.15;;;9.98;75.26
37200;BME280;23096;50.892;16.746;2022-12-24T05:43:14;98164.31;;;9.99;75.20
37200;BME280;23096;50.892;16.746;2022-12-24T05:45:40;98160.52;;;9.97;75.17
37200;BME280;23096;50.892;16.746;2022-12-24T05:48:12;98166.19;;;9.95;75.18
37200;BME280;23096;50.892;16.746;2022-12-24T05:50:37;98177.30;;;9.96;75.16
37200;BME280;23096;50.892;16.746;2022-12-24T05:53:06;98171.33;;;9.95;75.16
37200;BME280;23096;50.892;16.746;2022-12-24T05:55:33;98172.45;;;9.98;75.16
37200;BME280;23096;50.892;16.746;2022-12-24T05:58:00;98173.31;;;9.99;75.11
37200;BME280;23096;50.892;16.746;2022-12-24T06:00:27;98184.10;;;9.97;75.06
37200;BME280;23096;50.892;16.746;2022-12-24T06:02:54;98188.36;;;9.98;75.11
37200;BME280;23096;50.892;16.746;2022-12-24T06:05:21;98186.18;;;9.99;75.15
37200;BME280;23096;50.892;16.746;2022-12-24T06:07:48;98184.73;;;10.02;75.20
37200;BME280;23096;50.892;16.746;2022-12-24T06:10:15;98184.99;;;10.06;75.15
37200;BME280;23096;50.892;16.746;2022-12-24T06:12:43;98191.33;;;10.08;75.09
37200;BME280;23096;50.892;16.746;2022-12-24T06:15:10;98181.03;;;10.08;75.03
37200;BME280;23096;50.892;16.746;2022-12-24T06:17:37;98194.36;;;10.07;75.03
37200;BME280;23096;50.892;16.746;2022-12-24T06:20:05;98194.83;;;10.07;75.00
37200;BME280;23096;50.892;16.746;2022-12-24T06:22:33;98211.02;;;10.09;75.01
37200;BME280;23096;50.892;16.746;2022-12-24T06:25:00;98210.96;;;10.10;75.03
37200;BME280;23096;50.892;16.746;2022-12-24T06:27:26;98210.04;;;10.11;75.00
37200;BME280;23096;50.892;16.746;2022-12-24T06:29:54;98215.98;;;10.13;75.00
37200;BME280;23096;50.892;16.746;2022-12-24T06:32:21;98214.30;;;10.12;74.92
37200;BME280;23096;50.892;16.746;2022-12-24T06:34:47;98214.36;;;10.11;74.92
37200;BME280;23096;50.892;16.746;2022-12-24T06:37:15;98231.61;;;10.09;74.88
37200;BME280;23096;50.892;16.746;2022-12-24T06:39:46;98223.06;;;10.08;74.97
37200;BME280;23096;50.892;16.746;2022-12-24T06:42:13;98234.88;;;10.12;74.96
37200;BME280;23096;50.892;16.746;2022-12-24T06:44:40;98234.88;;;10.12;74.94
37200;BME280;23096;50.892;16.746;2022-12-24T06:47:07;98230.27;;;10.10;74.90
37200;BME280;23096;50.892;16.746;2022-12-24T06:49:34;98230.72;;;10.10;74.91
37200;BME280;23096;50.892;16.746;2022-12-24T06:52:01;98224.42;;;10.07;74.91
37200;BME280;23096;50.892;16.746;2022-12-24T06:54:27;98232.61;;;10.06;74.93
37200;BME280;23096;50.892;16.746;2022-12-24T06:56:54;98239.03;;;10.06;74.93
37200;BME280;23096;50.892;16.746;2022-12-24T06:59:22;98247.58;;;10.07;74.90
37200;BME280;23096;50.892;16.746;2022-12-24T07:01:48;98252.80;;;10.05;74.86
37200;BME280;23096;50.892;16.746;2022-12-24T07:04:16;98262.86;;;10.01;74.83
37200;BME280;23096;50.892;16.746;2022-12-24T07:06:43;98258.30;;;9.97;74.85
37200;BME280;23096;50.892;16.746;2022-12-24T07:09:11;98275.67;;;9.92;74.86
37200;BME280;23096;50.892;16.746;2022-12-24T07:11:40;98283.98;;;9.89;74.89
37200;BME280;23096;50.892;16.746;2022-12-24T07:14:06;98282.89;;;9.84;74.94
37200;BME280;23096;50.892;16.746;2022-12-24T07:16:33;98282.12;;;9.82;75.01
37200;BME280;23096;50.892;16.746;2022-12-24T07:19:02;98294.75;;;9.78;75.04
37200;BME280;23096;50.892;16.746;2022-12-24T07:21:29;98291.93;;;9.74;75.07
37200;BME280;23096;50.892;16.746;2022-12-24T07:23:56;98302.80;;;9.70;75.12
37200;BME280;23096;50.892;16.746;2022-12-24T07:26:23;98300.48;;;9.64;75.09
37200;BME280;23096;50.892;16.746;2022-12-24T07:28:50;98316.64;;;9.57;75.15
37200;BME280;23096;50.892;16.746;2022-12-24T07:31:20;98318.23;;;9.50;75.25
37200;BME280;23096;50.892;16.746;2022-12-24T07:33:47;98333.41;;;9.46;75.31
37200;BME280;23096;50.892;16.746;2022-12-24T07:36:16;98342.98;;;9.42;75.40
37200;BME280;23096;50.892;16.746;2022-12-24T07:38:44;98350.96;;;9.36;75.48
37200;BME280;23096;50.892;16.746;2022-12-24T07:41:12;98355.85;;;9.32;75.54
37200;BME280;23096;50.892;16.746;2022-12-24T07:43:39;98367.13;;;9.28;75.64
37200;BME280;23096;50.892;16.746;2022-12-24T07:46:08;98374.65;;;9.22;75.71
37200;BME280;23096;50.892;16.746;2022-12-24T07:48:37;98376.96;;;9.18;75.84
37200;BME280;23096;50.892;16.746;2022-12-24T07:51:04;98380.47;;;9.15;75.97
37200;BME280;23096;50.892;16.746;2022-12-24T07:53:31;98372.50;;;9.11;76.03
37200;BME280;23096;50.892;16.746;2022-12-24T07:55:58;98379.50;;;9.08;76.13
37200;BME280;23096;50.892;16.746;2022-12-24T07:58:25;98394.55;;;9.07;76.19
37200;BME280;23096;50.892;16.746;2022-12-24T08:00:59;98396.40;;;9.03;76.29
37200;BME280;23096;50.892;16.746;2022-12-24T08:03:26;98413.16;;;9.01;76.37
37200;BME280;23096;50.892;16.746;2022-12-24T08:05:53;98402.61;;;8.97;76.44
37200;BME280;23096;50.892;16.746;2022-12-24T08:08:20;98402.78;;;8.93;76.51
37200;BME280;23096;50.892;16.746;2022-12-24T08:10:48;98407.92;;;8.93;76.64
37200;BME280;23096;50.892;16.746;2022-12-24T08:13:15;98412.34;;;8.89;76.71
37200;BME280;23096;50.892;16.746;2022-12-24T08:15:42;98419.64;;;8.88;76.79
37200;BME280;23096;50.892;16.746;2022-12-24T08:18:10;98425.64;;;8.89;76.90
37200;BME280;23096;50.892;16.746;2022-12-24T08:20:38;98428.63;;;8.88;76.98
37200;BME280;23096;50.892;16.746;2022-12-24T08:23:06;98426.97;;;8.87;77.09
37200;BME280;23096;50.892;16.746;2022-12-24T08:25:35;98430.78;;;8.89;77.15
37200;BME280;23096;50.892;16.746;2022-12-24T08:28:03;98433.77;;;8.88;77.23
37200;BME280;23096;50.892;16.746;2022-12-24T08:30:30;98437.63;;;8.88;77.28
37200;BME280;23096;50.892;16.746;2022-12-24T08:32:58;98444.50;;;8.88;77.37
37200;BME280;23096;50.892;16.746;2022-12-24T08:35:25;98461.61;;;8.89;77.45
37200;BME280;23096;50.892;16.746;2022-12-24T08:37:52;98466.28;;;8.89;77.52
37200;BME280;23096;50.892;16.746;2022-12-24T08:40:19;98461.15;;;8.89;77.58
37200;BME280;23096;50.892;16.746;2022-12-24T08:42:46;98459.46;;;8.88;77.66
37200;BME280;23096;50.892;16.746;2022-12-24T08:45:14;98473.22;;;8.87;77.74
37200;BME280;23096;50.892;16.746;2022-12-24T08:47:42;98474.05;;;8.88;77.84
37200;BME280;23096;50.892;16.746;2022-12-24T08:50:09;98472.70;;;8.89;77.94
37200;BME280;23096;50.892;16.746;2022-12-24T08:52:36;98467.47;;;8.92;78.02
37200;BME280;23096;50.892;16.746;2022-12-24T08:55:03;98484.59;;;8.92;78.10
37200;BME280;23096;50.892;16.746;2022-12-24T08:57:34;98484.94;;;8.94;78.18
37200;BME280;23096;50.892;16.746;2022-12-24T09:00:03;98488.28;;;8.96;78.24
37200;BME280;23096;50.892;16.746;2022-12-24T09:02:39;98497.55;;;9.00;78.31
37200;BME280;23096;50.892;16.746;2022-12-24T09:07:33;98493.13;;;9.04;78.46
37200;BME280;23096;50.892;16.746;2022-12-24T09:10:00;98496.42;;;9.08;78.51
37200;BME280;23096;50.892;16.746;2022-12-24T09:12:27;98499.82;;;9.08;78.56
37200;BME280;23096;50.892;16.746;2022-12-24T09:14:54;98490.41;;;9.09;78.58
37200;BME280;23096;50.892;16.746;2022-12-24T09:17:21;98495.41;;;9.12;78.65
37200;BME280;23096;50.892;16.746;2022-12-24T09:19:48;98509.48;;;9.13;78.67
37200;BME280;23096;50.892;16.746;2022-12-24T09:22:16;98509.48;;;9.13;78.66
37200;BME280;23096;50.892;16.746;2022-12-24T09:24:43;98507.78;;;9.14;78.66
37200;BME280;23096;50.892;16.746;2022-12-24T09:27:10;98524.34;;;9.17;78.70
37200;BME280;23096;50.892;16.746;2022-12-24T09:29:37;98528.61;;;9.18;78.67
37200;BME280;23096;50.892;16.746;2022-12-24T09:32:06;98532.36;;;9.21;78.65
37200;BME280;23096;50.892;16.746;2022-12-24T09:34:33;98533.50;;;9.24;78.64
37200;BME280;23096;50.892;16.746;2022-12-24T09:37:00;98541.56;;;9.27;78.60
37200;BME280;23096;50.892;16.746;2022-12-24T09:39:28;98540.34;;;9.25;78.60
37200;BME280;23096;50.892;16.746;2022-12-24T09:44:42;98554.47;;;9.25;78.58
37200;BME280;23096;50.892;16.746;2022-12-24T09:49:50;98575.59;;;9.21;78.35
37200;BME280;23096;50.892;16.746;2022-12-24T09:52:40;98579.95;;;9.08;78.12
37200;BME280;23096;50.892;16.746;2022-12-24T09:55:15;98590.84;;;8.91;78.10
37200;BME280;23096;50.892;16.746;2022-12-24T09:57:40;98590.39;;;8.79;78.20
37200;BME280;23096;50.892;16.746;2022-12-24T10:00:28;98598.64;;;8.76;78.29
37200;BME280;23096;50.892;16.746;2022-12-24T10:02:53;98593.55;;;8.74;78.34
37200;BME280;23096;50.892;16.746;2022-12-24T10:05:27;98600.91;;;8.72;78.40
37200;BME280;23096;50.892;16.746;2022-12-24T10:08:13;98592.88;;;8.69;78.50
37200;BME280;23096;50.892;16.746;2022-12-24T10:10:50;98608.33;;;8.68;78.63
37200;BME280;23096;50.892;16.746;2022-12-24T10:18:55;98601.27;;;8.86;78.98
37200;BME280;23096;50.892;16.746;2022-12-24T10:21:45;98604.06;;;8.92;79.09
37200;BME280;23096;50.892;16.746;2022-12-24T10:24:15;98611.57;;;8.98;79.10
37200;BME280;23096;50.892;16.746;2022-12-24T10:27:01;98616.43;;;9.06;79.11
37200;BME280;23096;50.892;16.746;2022-12-24T10:29:35;98619.23;;;9.11;79.05
37200;BME280;23096;50.892;16.746;2022-12-24T10:34:48;98626.50;;;9.24;79.02
37200;BME280;23096;50.892;16.746;2022-12-24T10:37:19;98629.39;;;9.26;78.94
37200;BME280;23096;50.892;16.746;2022-12-24T10:39:51;98635.34;;;9.28;78.88
37200;BME280;23096;50.892;16.746;2022-12-24T10:42:20;98639.47;;;9.32;78.81
37200;BME280;23096;50.892;16.746;2022-12-24T10:44:51;98643.60;;;9.36;78.75
37200;BME280;23096;50.892;16.746;2022-12-24T10:47:21;98649.06;;;9.39;78.66
37200;BME280;23096;50.892;16.746;2022-12-24T10:49:52;98651.03;;;9.44;78.58
37200;BME280;23096;50.892;16.746;2022-12-24T10:52:28;98645.00;;;9.45;78.50
37200;BME280;23096;50.892;16.746;2022-12-24T10:58:04;98655.91;;;9.52;78.32
37200;BME280;23096;50.892;16.746;2022-12-24T11:00:29;98662.26;;;9.53;78.27
37200;BME280;23096;50.892;16.746;2022-12-24T11:05:39;98672.80;;;9.59;78.08
37200;BME280;23096;50.892;16.746;2022-12-24T11:08:16;98676.25;;;9.58;77.97
37200;BME280;23096;50.892;16.746;2022-12-24T11:10:59;98682.73;;;9.56;77.85
37200;BME280;23096;50.892;16.746;2022-12-24T11:13:38;98673.27;;;9.57;77.79
37200;BME280;23096;50.892;16.746;2022-12-24T11:18:56;98698.52;;;9.59;77.60
37200;BME280;23096;50.892;16.746;2022-12-24T11:21:26;98695.03;;;9.60;77.48
37200;BME280;23096;50.892;16.746;2022-12-24T11:24:13;98690.34;;;9.59;77.42
37200;BME280;23096;50.892;16.746;2022-12-24T11:26:41;98695.95;;;9.59;77.29
37200;BME280;23096;50.892;16.746;2022-12-24T11:31:46;98701.56;;;9.57;77.11
37200;BME280;23096;50.892;16.746;2022-12-24T11:37:08;98714.83;;;9.58;76.86
37200;BME280;23096;50.892;16.746;2022-12-24T11:39:44;98724.34;;;9.56;76.76
37200;BME280;23096;50.892;16.746;2022-12-24T11:42:37;98721.50;;;9.52;76.63
37200;BME280;23096;50.892;16.746;2022-12-24T11:45:05;98721.59;;;9.49;76.60
37200;BME280;23096;50.892;16.746;2022-12-24T11:47:37;98730.19;;;9.48;76.55
37200;BME280;23096;50.892;16.746;2022-12-24T11:50:38;98738.69;;;9.50;76.49
37200;BME280;23096;50.892;16.746;2022-12-24T11:55:49;98754.57;;;9.49;76.40
37200;BME280;23096;50.892;16.746;2022-12-24T12:04:15;98757.92;;;9.51;76.22
37200;BME280;23096;50.892;16.746;2022-12-24T12:06:46;98754.62;;;9.48;76.20
37200;BME280;23096;50.892;16.746;2022-12-24T12:09:16;98767.38;;;9.51;76.16
37200;BME280;23096;50.892;16.746;2022-12-24T12:11:55;98769.45;;;9.53;76.10
37200;BME280;23096;50.892;16.746;2022-12-24T12:14:22;98771.14;;;9.54;76.02
37200;BME280;23096;50.892;16.746;2022-12-24T12:17:03;98781.80;;;9.55;75.98
37200;BME280;23096;50.892;16.746;2022-12-24T12:19:47;98792.95;;;9.55;75.88
37200;BME280;23096;50.892;16.746;2022-12-24T12:24:52;98798.14;;;9.54;75.76
37200;BME280;23096;50.892;16.746;2022-12-24T12:27:25;98786.57;;;9.54;75.74
37200;BME280;23096;50.892;16.746;2022-12-24T12:30:04;98793.50;;;9.52;75.69
37200;BME280;23096;50.892;16.746;2022-12-24T12:32:38;98807.24;;;9.51;75.65
37200;BME280;23096;50.892;16.746;2022-12-24T12:35:25;98808.98;;;9.50;75.62
37200;BME280;23096;50.892;16.746;2022-12-24T12:37:58;98804.22;;;9.51;75.59
37200;BME280;23096;50.892;16.746;2022-12-24T12:46:04;98799.43;;;9.54;75.46
37200;BME280;23096;50.892;16.746;2022-12-24T12:56:57;98813.17;;;9.53;75.28
37200;BME280;23096;50.892;16.746;2022-12-24T12:59:32;98822.13;;;9.54;75.23
37200;BME280;23096;50.892;16.746;2022-12-24T13:04:54;98823.73;;;9.57;75.16
37200;BME280;23096;50.892;16.746;2022-12-24T13:10:40;98838.19;;;9.61;75.04
37200;BME280;23096;50.892;16.746;2022-12-24T13:21:27;98833.61;;;9.69;74.69
37200;BME280;23096;50.892;16.746;2022-12-24T13:24:05;98843.90;;;9.69;74.63
37200;BME280;23096;50.892;16.746;2022-12-24T13:26:37;98851.11;;;9.71;74.57
37200;BME280;23096;50.892;16.746;2022-12-24T13:32:35;98854.42;;;9.75;74.42
37200;BME280;23096;50.892;16.746;2022-12-24T13:34:51;98854.83;;;9.76;74.30
37200;BME280;23096;50.892;16.746;2022-12-24T13:37:38;98857.40;;;9.76;74.22
37200;BME280;23096;50.892;16.746;2022-12-24T13:58:46;98878.81;;;9.76;73.56
37200;BME280;23096;50.892;16.746;2022-12-24T14:01:22;98886.63;;;9.73;73.46
37200;BME280;23096;50.892;16.746;2022-12-24T14:03:56;98888.41;;;9.71;73.39
37200;BME280;23096;50.892;16.746;2022-12-24T14:06:34;98892.28;;;9.71;73.32
37200;BME280;23096;50.892;16.746;2022-12-24T14:09:19;98891.44;;;9.71;73.25
37200;BME280;23096;50.892;16.746;2022-12-24T14:16:59;98903.23;;;9.65;73.08
37200;BME280;23096;50.892;16.746;2022-12-24T14:19:40;98901.00;;;9.67;72.99
37200;BME280;23096;50.892;16.746;2022-12-24T14:22:19;98910.50;;;9.65;72.89
37200;BME280;23096;50.892;16.746;2022-12-24T14:27:28;98914.86;;;9.63;72.70
37200;BME280;23096;50.892;16.746;2022-12-24T14:30:21;98929.39;;;9.64;72.67
37200;BME280;23096;50.892;16.746;2022-12-24T14:32:48;98928.51;;;9.65;72.55
37200;BME280;23096;50.892;16.746;2022-12-24T14:35:17;98921.63;;;9.66;72.47
37200;BME280;23096;50.892;16.746;2022-12-24T14:37:56;98925.61;;;9.63;72.38
37200;BME280;23096;50.892;16.746;2022-12-24T14:40:32;98932.03;;;9.63;72.32
37200;BME280;23096;50.892;16.746;2022-12-24T14:51:21;98944.45;;;9.63;72.00
37200;BME280;23096;50.892;16.746;2022-12-24T14:54:14;98953.53;;;9.60;71.94
37200;BME280;23096;50.892;16.746;2022-12-24T14:56:44;98954.73;;;9.63;71.91
37200;BME280;23096;50.892;16.746;2022-12-24T14:59:15;98960.42;;;9.59;71.76
37200;BME280;23096;50.892;16.746;2022-12-24T15:01:44;98966.48;;;9.57;71.75
37200;BME280;23096;50.892;16.746;2022-12-24T15:04:15;98967.11;;;9.52;71.72
37200;BME280;23096;50.892;16.746;2022-12-24T15:06:49;98971.84;;;9.51;71.74
37200;BME280;23096;50.892;16.746;2022-12-24T15:09:20;98982.54;;;9.52;71.68
37200;BME280;23096;50.892;16.746;2022-12-24T15:11:49;98986.86;;;9.50;71.63
37200;BME280;23096;50.892;16.746;2022-12-24T15:14:18;98980.84;;;9.51;71.62
37200;BME280;23096;50.892;16.746;2022-12-24T15:16:49;98987.61;;;9.53;71.60
37200;BME280;23096;50.892;16.746;2022-12-24T15:19:23;98995.78;;;9.53;71.52
37200;BME280;23096;50.892;16.746;2022-12-24T15:21:54;98997.11;;;9.51;71.45
37200;BME280;23096;50.892;16.746;2022-12-24T15:24:26;98988.64;;;9.48;71.38
37200;BME280;23096;50.892;16.746;2022-12-24T15:26:58;98996.41;;;9.46;71.32
37200;BME280;23096;50.892;16.746;2022-12-24T15:29:28;98995.28;;;9.42;71.26
37200;BME280;23096;50.892;16.746;2022-12-24T15:31:58;98992.34;;;9.39;71.23
37200;BME280;23096;50.892;16.746;2022-12-24T15:34:36;98990.27;;;9.37;71.18
37200;BME280;23096;50.892;16.746;2022-12-24T15:37:18;99002.37;;;9.33;71.14